金門航空站 - ATIS

METAR RCBS 231200Z 04011KT 9999 FEW012 17/08 Q1025 NOSIG RMK A3028(M)=

站台狀態:Online
最後更新:2020-02-24 04:00:04